sensor_id;sensor_type;location;lat;lon;timestamp;P1;durP1;ratioP1;P2;durP2;ratioP2
49123;SDS011;48506;48.202;16.274;2024-03-17T00:02:08;1.80;;;0.82;;
49123;SDS011;48506;48.202;16.274;2024-03-17T00:04:34;0.88;;;0.70;;
49123;SDS011;48506;48.202;16.274;2024-03-17T00:07:00;1.05;;;0.82;;
49123;SDS011;48506;48.202;16.274;2024-03-17T00:09:26;1.10;;;1.00;;
49123;SDS011;48506;48.202;16.274;2024-03-17T00:11:52;1.27;;;1.00;;
49123;SDS011;48506;48.202;16.274;2024-03-17T00:14:18;1.15;;;1.00;;
49123;SDS011;48506;48.202;16.274;2024-03-17T00:16:44;1.65;;;1.20;;
49123;SDS011;48506;48.202;16.274;2024-03-17T00:19:10;2.55;;;1.35;;
49123;SDS011;48506;48.202;16.274;2024-03-17T00:21:36;2.20;;;1.73;;
49123;SDS011;48506;48.202;16.274;2024-03-17T00:24:02;2.38;;;1.70;;
49123;SDS011;48506;48.202;16.274;2024-03-17T00:26:28;2.38;;;1.77;;
49123;SDS011;48506;48.202;16.274;2024-03-17T00:28:55;2.15;;;1.90;;
49123;SDS011;48506;48.202;16.274;2024-03-17T00:31:21;2.17;;;1.75;;
49123;SDS011;48506;48.202;16.274;2024-03-17T00:33:51;1.75;;;1.58;;
49123;SDS011;48506;48.202;16.274;2024-03-17T00:36:17;2.30;;;1.58;;
49123;SDS011;48506;48.202;16.274;2024-03-17T00:38:43;1.60;;;1.30;;
49123;SDS011;48506;48.202;16.274;2024-03-17T00:41:09;1.67;;;1.30;;
49123;SDS011;48506;48.202;16.274;2024-03-17T00:43:35;1.30;;;1.20;;
49123;SDS011;48506;48.202;16.274;2024-03-17T00:46:02;1.80;;;1.13;;
49123;SDS011;48506;48.202;16.274;2024-03-17T00:48:28;2.63;;;1.23;;
49123;SDS011;48506;48.202;16.274;2024-03-17T00:50:55;1.63;;;1.30;;
49123;SDS011;48506;48.202;16.274;2024-03-17T00:53:21;1.85;;;1.50;;
49123;SDS011;48506;48.202;16.274;2024-03-17T00:55:56;1.55;;;1.45;;
49123;SDS011;48506;48.202;16.274;2024-03-17T00:58:28;2.50;;;1.40;;
49123;SDS011;48506;48.202;16.274;2024-03-17T01:00:54;1.95;;;1.50;;
49123;SDS011;48506;48.202;16.274;2024-03-17T01:03:20;1.52;;;1.40;;
49123;SDS011;48506;48.202;16.274;2024-03-17T01:05:46;1.92;;;1.63;;
49123;SDS011;48506;48.202;16.274;2024-03-17T01:08:13;1.90;;;1.70;;
49123;SDS011;48506;48.202;16.274;2024-03-17T01:10:40;2.80;;;1.80;;
49123;SDS011;48506;48.202;16.274;2024-03-17T01:13:07;2.03;;;1.80;;
49123;SDS011;48506;48.202;16.274;2024-03-17T01:15:34;2.40;;;1.63;;
49123;SDS011;48506;48.202;16.274;2024-03-17T01:18:02;3.42;;;2.10;;
49123;SDS011;48506;48.202;16.274;2024-03-17T01:20:32;1.88;;;1.48;;
49123;SDS011;48506;48.202;16.274;2024-03-17T01:23:00;2.00;;;1.77;;
49123;SDS011;48506;48.202;16.274;2024-03-17T01:25:26;2.90;;;1.75;;
49123;SDS011;48506;48.202;16.274;2024-03-17T01:27:53;2.85;;;1.70;;
49123;SDS011;48506;48.202;16.274;2024-03-17T01:30:19;1.95;;;1.85;;
49123;SDS011;48506;48.202;16.274;2024-03-17T01:32:45;2.40;;;2.20;;
49123;SDS011;48506;48.202;16.274;2024-03-17T01:35:11;2.20;;;1.83;;
49123;SDS011;48506;48.202;16.274;2024-03-17T01:37:39;2.45;;;1.95;;
49123;SDS011;48506;48.202;16.274;2024-03-17T01:40:05;4.20;;;2.03;;
49123;SDS011;48506;48.202;16.274;2024-03-17T01:42:35;6.57;;;3.83;;
49123;SDS011;48506;48.202;16.274;2024-03-17T01:47:41;3.58;;;2.75;;
49123;SDS011;48506;48.202;16.274;2024-03-17T01:50:07;3.65;;;2.90;;
49123;SDS011;48506;48.202;16.274;2024-03-17T01:52:34;6.90;;;2.72;;
49123;SDS011;48506;48.202;16.274;2024-03-17T01:55:02;4.40;;;3.10;;
49123;SDS011;48506;48.202;16.274;2024-03-17T01:57:28;4.05;;;3.40;;
49123;SDS011;48506;48.202;16.274;2024-03-17T01:59:55;3.53;;;2.80;;
49123;SDS011;48506;48.202;16.274;2024-03-17T02:02:22;3.20;;;2.65;;
49123;SDS011;48506;48.202;16.274;2024-03-17T02:04:48;4.70;;;3.53;;
49123;SDS011;48506;48.202;16.274;2024-03-17T02:07:15;5.43;;;3.00;;
49123;SDS011;48506;48.202;16.274;2024-03-17T02:09:41;4.60;;;3.28;;
49123;SDS011;48506;48.202;16.274;2024-03-17T02:12:10;4.75;;;3.22;;
49123;SDS011;48506;48.202;16.274;2024-03-17T02:14:37;4.53;;;3.30;;
49123;SDS011;48506;48.202;16.274;2024-03-17T02:17:04;4.45;;;3.45;;
49123;SDS011;48506;48.202;16.274;2024-03-17T02:19:30;3.85;;;3.42;;
49123;SDS011;48506;48.202;16.274;2024-03-17T02:21:56;4.65;;;3.28;;
49123;SDS011;48506;48.202;16.274;2024-03-17T02:24:25;4.00;;;2.40;;
49123;SDS011;48506;48.202;16.274;2024-03-17T02:26:51;5.55;;;3.33;;
49123;SDS011;48506;48.202;16.274;2024-03-17T02:29:17;5.75;;;3.65;;
49123;SDS011;48506;48.202;16.274;2024-03-17T02:31:43;4.28;;;3.75;;
49123;SDS011;48506;48.202;16.274;2024-03-17T02:34:09;5.88;;;4.28;;
49123;SDS011;48506;48.202;16.274;2024-03-17T02:36:35;4.63;;;3.75;;
49123;SDS011;48506;48.202;16.274;2024-03-17T02:39:01;9.45;;;4.15;;
49123;SDS011;48506;48.202;16.274;2024-03-17T02:41:45;6.20;;;3.95;;
49123;SDS011;48506;48.202;16.274;2024-03-17T02:44:11;6.75;;;4.47;;
49123;SDS011;48506;48.202;16.274;2024-03-17T02:46:38;5.75;;;4.18;;
49123;SDS011;48506;48.202;16.274;2024-03-17T02:49:03;7.25;;;3.50;;
49123;SDS011;48506;48.202;16.274;2024-03-17T02:51:33;7.43;;;4.60;;
49123;SDS011;48506;48.202;16.274;2024-03-17T02:53:59;7.25;;;4.15;;
49123;SDS011;48506;48.202;16.274;2024-03-17T02:56:25;6.80;;;4.95;;
49123;SDS011;48506;48.202;16.274;2024-03-17T02:58:51;5.30;;;4.10;;
49123;SDS011;48506;48.202;16.274;2024-03-17T03:01:17;5.65;;;4.18;;
49123;SDS011;48506;48.202;16.274;2024-03-17T03:03:45;6.28;;;4.75;;
49123;SDS011;48506;48.202;16.274;2024-03-17T03:06:11;7.97;;;4.70;;
49123;SDS011;48506;48.202;16.274;2024-03-17T03:08:37;7.88;;;5.63;;
49123;SDS011;48506;48.202;16.274;2024-03-17T03:11:08;6.68;;;5.25;;
49123;SDS011;48506;48.202;16.274;2024-03-17T03:13:40;6.22;;;4.38;;
49123;SDS011;48506;48.202;16.274;2024-03-17T03:16:08;6.63;;;4.53;;
49123;SDS011;48506;48.202;16.274;2024-03-17T03:18:39;6.97;;;4.47;;
49123;SDS011;48506;48.202;16.274;2024-03-17T03:21:06;6.55;;;4.45;;
49123;SDS011;48506;48.202;16.274;2024-03-17T03:23:32;9.43;;;4.72;;
49123;SDS011;48506;48.202;16.274;2024-03-17T03:25:59;6.32;;;4.57;;
49123;SDS011;48506;48.202;16.274;2024-03-17T03:28:32;10.48;;;5.60;;
49123;SDS011;48506;48.202;16.274;2024-03-17T03:31:02;10.63;;;5.97;;
49123;SDS011;48506;48.202;16.274;2024-03-17T03:33:28;9.57;;;4.95;;
49123;SDS011;48506;48.202;16.274;2024-03-17T03:35:54;8.45;;;4.57;;
49123;SDS011;48506;48.202;16.274;2024-03-17T03:38:20;7.60;;;5.13;;
49123;SDS011;48506;48.202;16.274;2024-03-17T03:40:47;11.63;;;5.28;;
49123;SDS011;48506;48.202;16.274;2024-03-17T03:43:14;9.77;;;5.68;;
49123;SDS011;48506;48.202;16.274;2024-03-17T03:45:40;11.13;;;5.35;;
49123;SDS011;48506;48.202;16.274;2024-03-17T03:48:07;7.30;;;4.85;;
49123;SDS011;48506;48.202;16.274;2024-03-17T03:50:37;8.90;;;4.13;;
49123;SDS011;48506;48.202;16.274;2024-03-17T03:53:03;7.57;;;5.32;;
49123;SDS011;48506;48.202;16.274;2024-03-17T03:55:31;9.02;;;5.47;;
49123;SDS011;48506;48.202;16.274;2024-03-17T03:57:57;9.23;;;5.47;;
49123;SDS011;48506;48.202;16.274;2024-03-17T04:00:23;11.55;;;5.85;;
49123;SDS011;48506;48.202;16.274;2024-03-17T04:02:49;9.07;;;5.47;;
49123;SDS011;48506;48.202;16.274;2024-03-17T04:05:20;10.90;;;6.15;;
49123;SDS011;48506;48.202;16.274;2024-03-17T04:07:47;9.88;;;4.72;;
49123;SDS011;48506;48.202;16.274;2024-03-17T04:10:14;9.57;;;5.45;;
49123;SDS011;48506;48.202;16.274;2024-03-17T04:12:43;8.88;;;5.40;;
49123;SDS011;48506;48.202;16.274;2024-03-17T04:15:09;15.07;;;6.10;;
49123;SDS011;48506;48.202;16.274;2024-03-17T04:17:36;10.80;;;6.25;;
49123;SDS011;48506;48.202;16.274;2024-03-17T04:20:03;9.52;;;5.53;;
49123;SDS011;48506;48.202;16.274;2024-03-17T04:22:33;10.98;;;6.28;;
49123;SDS011;48506;48.202;16.274;2024-03-17T04:25:00;11.05;;;6.55;;
49123;SDS011;48506;48.202;16.274;2024-03-17T04:27:26;12.80;;;6.10;;
49123;SDS011;48506;48.202;16.274;2024-03-17T04:29:53;9.68;;;5.60;;
49123;SDS011;48506;48.202;16.274;2024-03-17T04:32:21;9.68;;;5.80;;
49123;SDS011;48506;48.202;16.274;2024-03-17T04:34:47;16.30;;;6.50;;
49123;SDS011;48506;48.202;16.274;2024-03-17T04:37:13;15.20;;;6.80;;
49123;SDS011;48506;48.202;16.274;2024-03-17T04:39:40;11.02;;;6.90;;
49123;SDS011;48506;48.202;16.274;2024-03-17T04:42:14;13.40;;;6.72;;
49123;SDS011;48506;48.202;16.274;2024-03-17T04:44:44;8.23;;;5.15;;
49123;SDS011;48506;48.202;16.274;2024-03-17T04:47:11;8.68;;;6.03;;
49123;SDS011;48506;48.202;16.274;2024-03-17T04:49:38;8.85;;;6.95;;
49123;SDS011;48506;48.202;16.274;2024-03-17T04:52:05;7.00;;;5.80;;
49123;SDS011;48506;48.202;16.274;2024-03-17T04:54:32;7.72;;;5.15;;
49123;SDS011;48506;48.202;16.274;2024-03-17T04:56:59;6.97;;;4.97;;
49123;SDS011;48506;48.202;16.274;2024-03-17T04:59:26;10.20;;;5.90;;
49123;SDS011;48506;48.202;16.274;2024-03-17T05:01:52;8.68;;;5.55;;
49123;SDS011;48506;48.202;16.274;2024-03-17T05:04:19;9.85;;;5.70;;
49123;SDS011;48506;48.202;16.274;2024-03-17T05:06:45;10.30;;;5.43;;
49123;SDS011;48506;48.202;16.274;2024-03-17T05:09:12;8.00;;;6.30;;
49123;SDS011;48506;48.202;16.274;2024-03-17T05:11:39;10.40;;;4.97;;
49123;SDS011;48506;48.202;16.274;2024-03-17T05:14:05;8.55;;;5.45;;
49123;SDS011;48506;48.202;16.274;2024-03-17T05:16:31;11.70;;;6.07;;
49123;SDS011;48506;48.202;16.274;2024-03-17T05:18:57;6.60;;;5.07;;
49123;SDS011;48506;48.202;16.274;2024-03-17T05:21:23;11.25;;;5.80;;
49123;SDS011;48506;48.202;16.274;2024-03-17T05:23:51;11.73;;;6.18;;
49123;SDS011;48506;48.202;16.274;2024-03-17T05:26:17;8.48;;;5.68;;
49123;SDS011;48506;48.202;16.274;2024-03-17T05:28:43;9.43;;;5.03;;
49123;SDS011;48506;48.202;16.274;2024-03-17T05:31:09;7.85;;;4.72;;
49123;SDS011;48506;48.202;16.274;2024-03-17T05:33:40;13.93;;;6.40;;
49123;SDS011;48506;48.202;16.274;2024-03-17T05:36:06;11.10;;;5.40;;
49123;SDS011;48506;48.202;16.274;2024-03-17T05:38:32;8.40;;;5.10;;
49123;SDS011;48506;48.202;16.274;2024-03-17T05:41:01;14.20;;;4.78;;
49123;SDS011;48506;48.202;16.274;2024-03-17T05:43:29;10.02;;;4.93;;
49123;SDS011;48506;48.202;16.274;2024-03-17T05:45:58;9.93;;;4.65;;
49123;SDS011;48506;48.202;16.274;2024-03-17T05:48:31;7.97;;;3.97;;
49123;SDS011;48506;48.202;16.274;2024-03-17T05:51:00;9.32;;;5.30;;
49123;SDS011;48506;48.202;16.274;2024-03-17T05:53:28;8.90;;;5.45;;
49123;SDS011;48506;48.202;16.274;2024-03-17T05:55:54;8.70;;;4.72;;
49123;SDS011;48506;48.202;16.274;2024-03-17T05:58:20;8.85;;;4.85;;
49123;SDS011;48506;48.202;16.274;2024-03-17T06:00:48;8.07;;;4.20;;
49123;SDS011;48506;48.202;16.274;2024-03-17T06:03:14;6.75;;;4.15;;
49123;SDS011;48506;48.202;16.274;2024-03-17T06:05:40;10.50;;;5.03;;
49123;SDS011;48506;48.202;16.274;2024-03-17T06:08:06;6.68;;;3.72;;
49123;SDS011;48506;48.202;16.274;2024-03-17T06:10:34;8.63;;;4.50;;
49123;SDS011;48506;48.202;16.274;2024-03-17T06:13:02;12.45;;;4.03;;
49123;SDS011;48506;48.202;16.274;2024-03-17T06:15:28;9.95;;;3.75;;
49123;SDS011;48506;48.202;16.274;2024-03-17T06:17:54;12.65;;;4.70;;
49123;SDS011;48506;48.202;16.274;2024-03-17T06:20:21;6.85;;;3.78;;
49123;SDS011;48506;48.202;16.274;2024-03-17T06:22:53;5.57;;;3.60;;
49123;SDS011;48506;48.202;16.274;2024-03-17T06:25:20;15.00;;;3.92;;
49123;SDS011;48506;48.202;16.274;2024-03-17T06:27:51;9.10;;;3.67;;
49123;SDS011;48506;48.202;16.274;2024-03-17T06:30:18;9.23;;;4.00;;
49123;SDS011;48506;48.202;16.274;2024-03-17T06:32:45;5.65;;;3.20;;
49123;SDS011;48506;48.202;16.274;2024-03-17T06:35:14;7.13;;;3.38;;
49123;SDS011;48506;48.202;16.274;2024-03-17T06:37:44;8.30;;;3.20;;
49123;SDS011;48506;48.202;16.274;2024-03-17T06:40:14;5.55;;;2.38;;
49123;SDS011;48506;48.202;16.274;2024-03-17T06:42:40;7.18;;;2.70;;
49123;SDS011;48506;48.202;16.274;2024-03-17T06:45:07;11.65;;;3.13;;
49123;SDS011;48506;48.202;16.274;2024-03-17T06:47:37;8.50;;;3.28;;
49123;SDS011;48506;48.202;16.274;2024-03-17T06:50:03;8.52;;;3.33;;
49123;SDS011;48506;48.202;16.274;2024-03-17T06:52:30;11.02;;;4.07;;
49123;SDS011;48506;48.202;16.274;2024-03-17T06:54:56;8.05;;;2.85;;
49123;SDS011;48506;48.202;16.274;2024-03-17T06:57:27;15.98;;;3.25;;
49123;SDS011;48506;48.202;16.274;2024-03-17T06:59:53;8.00;;;3.28;;
49123;SDS011;48506;48.202;16.274;2024-03-17T07:02:19;8.45;;;2.60;;
49123;SDS011;48506;48.202;16.274;2024-03-17T07:04:45;6.35;;;2.65;;
49123;SDS011;48506;48.202;16.274;2024-03-17T07:07:13;7.30;;;2.80;;
49123;SDS011;48506;48.202;16.274;2024-03-17T07:09:40;9.52;;;3.38;;
49123;SDS011;48506;48.202;16.274;2024-03-17T07:12:07;7.90;;;4.07;;
49123;SDS011;48506;48.202;16.274;2024-03-17T07:14:34;5.82;;;2.38;;
49123;SDS011;48506;48.202;16.274;2024-03-17T07:17:00;6.38;;;2.55;;
49123;SDS011;48506;48.202;16.274;2024-03-17T07:19:26;7.70;;;3.13;;
49123;SDS011;48506;48.202;16.274;2024-03-17T07:21:54;8.27;;;3.03;;
49123;SDS011;48506;48.202;16.274;2024-03-17T07:24:20;12.55;;;3.38;;
49123;SDS011;48506;48.202;16.274;2024-03-17T07:26:49;6.05;;;2.75;;
49123;SDS011;48506;48.202;16.274;2024-03-17T07:29:16;8.63;;;3.50;;
49123;SDS011;48506;48.202;16.274;2024-03-17T07:31:44;4.65;;;2.63;;
49123;SDS011;48506;48.202;16.274;2024-03-17T07:34:10;7.68;;;2.47;;
49123;SDS011;48506;48.202;16.274;2024-03-17T07:36:36;5.88;;;2.83;;
49123;SDS011;48506;48.202;16.274;2024-03-17T07:39:02;5.65;;;2.88;;
49123;SDS011;48506;48.202;16.274;2024-03-17T07:41:28;6.45;;;3.05;;
49123;SDS011;48506;48.202;16.274;2024-03-17T07:43:54;6.82;;;2.63;;
49123;SDS011;48506;48.202;16.274;2024-03-17T07:46:20;9.00;;;2.17;;
49123;SDS011;48506;48.202;16.274;2024-03-17T07:48:46;5.90;;;2.30;;
49123;SDS011;48506;48.202;16.274;2024-03-17T07:51:13;5.47;;;2.20;;
49123;SDS011;48506;48.202;16.274;2024-03-17T07:53:40;4.28;;;2.00;;
49123;SDS011;48506;48.202;16.274;2024-03-17T07:56:08;6.82;;;3.00;;
49123;SDS011;48506;48.202;16.274;2024-03-17T07:58:36;7.38;;;2.97;;
49123;SDS011;48506;48.202;16.274;2024-03-17T08:01:06;4.97;;;2.10;;
49123;SDS011;48506;48.202;16.274;2024-03-17T08:03:36;5.57;;;2.25;;
49123;SDS011;48506;48.202;16.274;2024-03-17T08:06:03;5.97;;;2.22;;
49123;SDS011;48506;48.202;16.274;2024-03-17T08:08:30;3.03;;;2.20;;
49123;SDS011;48506;48.202;16.274;2024-03-17T08:10:57;6.13;;;2.55;;
49123;SDS011;48506;48.202;16.274;2024-03-17T08:13:24;7.20;;;2.90;;
49123;SDS011;48506;48.202;16.274;2024-03-17T08:15:56;4.75;;;2.20;;
49123;SDS011;48506;48.202;16.274;2024-03-17T08:18:24;6.32;;;2.38;;
49123;SDS011;48506;48.202;16.274;2024-03-17T08:20:52;6.10;;;2.90;;
49123;SDS011;48506;48.202;16.274;2024-03-17T08:23:22;5.73;;;2.53;;
49123;SDS011;48506;48.202;16.274;2024-03-17T08:26:06;3.78;;;2.40;;
49123;SDS011;48506;48.202;16.274;2024-03-17T08:28:33;5.22;;;2.75;;
49123;SDS011;48506;48.202;16.274;2024-03-17T08:31:00;4.03;;;2.60;;
49123;SDS011;48506;48.202;16.274;2024-03-17T08:33:28;4.78;;;2.60;;
49123;SDS011;48506;48.202;16.274;2024-03-17T08:35:54;5.55;;;2.47;;
49123;SDS011;48506;48.202;16.274;2024-03-17T08:38:22;8.05;;;3.08;;
49123;SDS011;48506;48.202;16.274;2024-03-17T08:40:52;7.88;;;3.08;;
49123;SDS011;48506;48.202;16.274;2024-03-17T08:45:45;5.30;;;2.78;;
49123;SDS011;48506;48.202;16.274;2024-03-17T08:48:27;6.35;;;2.60;;
49123;SDS011;48506;48.202;16.274;2024-03-17T08:50:57;7.20;;;2.50;;
49123;SDS011;48506;48.202;16.274;2024-03-17T08:53:24;5.95;;;2.67;;
49123;SDS011;48506;48.202;16.274;2024-03-17T08:55:51;5.45;;;2.75;;
49123;SDS011;48506;48.202;16.274;2024-03-17T08:58:17;7.07;;;3.17;;
49123;SDS011;48506;48.202;16.274;2024-03-17T09:00:43;4.28;;;2.80;;
49123;SDS011;48506;48.202;16.274;2024-03-17T09:03:09;4.82;;;2.67;;
49123;SDS011;48506;48.202;16.274;2024-03-17T09:05:40;5.70;;;2.45;;
49123;SDS011;48506;48.202;16.274;2024-03-17T09:08:14;4.82;;;2.40;;
49123;SDS011;48506;48.202;16.274;2024-03-17T09:10:41;6.00;;;2.92;;
49123;SDS011;48506;48.202;16.274;2024-03-17T09:13:17;5.22;;;2.55;;
49123;SDS011;48506;48.202;16.274;2024-03-17T09:15:51;3.60;;;2.67;;
49123;SDS011;48506;48.202;16.274;2024-03-17T09:18:28;5.20;;;2.85;;
49123;SDS011;48506;48.202;16.274;2024-03-17T09:20:55;4.82;;;2.53;;
49123;SDS011;48506;48.202;16.274;2024-03-17T09:23:22;5.40;;;2.85;;
49123;SDS011;48506;48.202;16.274;2024-03-17T09:25:58;4.70;;;2.67;;
49123;SDS011;48506;48.202;16.274;2024-03-17T09:28:26;6.65;;;2.50;;
49123;SDS011;48506;48.202;16.274;2024-03-17T09:30:53;4.32;;;2.30;;
49123;SDS011;48506;48.202;16.274;2024-03-17T09:33:21;3.17;;;2.33;;
49123;SDS011;48506;48.202;16.274;2024-03-17T09:36:01;4.30;;;2.53;;
49123;SDS011;48506;48.202;16.274;2024-03-17T09:38:29;5.00;;;2.53;;
49123;SDS011;48506;48.202;16.274;2024-03-17T09:40:56;5.43;;;2.63;;
49123;SDS011;48506;48.202;16.274;2024-03-17T09:43:29;3.40;;;2.25;;
49123;SDS011;48506;48.202;16.274;2024-03-17T09:46:03;4.30;;;2.67;;
49123;SDS011;48506;48.202;16.274;2024-03-17T09:48:30;6.90;;;2.90;;
49123;SDS011;48506;48.202;16.274;2024-03-17T09:50:56;3.85;;;2.10;;
49123;SDS011;48506;48.202;16.274;2024-03-17T09:53:25;4.22;;;2.35;;
49123;SDS011;48506;48.202;16.274;2024-03-17T09:55:54;7.35;;;2.45;;
49123;SDS011;48506;48.202;16.274;2024-03-17T09:58:31;3.88;;;2.20;;
49123;SDS011;48506;48.202;16.274;2024-03-17T10:00:58;4.15;;;2.10;;
49123;SDS011;48506;48.202;16.274;2024-03-17T10:06:20;4.22;;;2.00;;
49123;SDS011;48506;48.202;16.274;2024-03-17T10:08:48;3.13;;;2.22;;
49123;SDS011;48506;48.202;16.274;2024-03-17T10:11:16;2.63;;;1.92;;
49123;SDS011;48506;48.202;16.274;2024-03-17T10:13:44;3.75;;;1.95;;
49123;SDS011;48506;48.202;16.274;2024-03-17T10:16:24;3.58;;;2.00;;
49123;SDS011;48506;48.202;16.274;2024-03-17T10:19:13;3.13;;;2.03;;
49123;SDS011;48506;48.202;16.274;2024-03-17T10:21:42;3.30;;;2.25;;
49123;SDS011;48506;48.202;16.274;2024-03-17T10:26:58;3.08;;;1.90;;
49123;SDS011;48506;48.202;16.274;2024-03-17T10:29:34;3.58;;;2.15;;
49123;SDS011;48506;48.202;16.274;2024-03-17T10:32:04;3.92;;;2.15;;
49123;SDS011;48506;48.202;16.274;2024-03-17T10:34:38;5.70;;;2.33;;
49123;SDS011;48506;48.202;16.274;2024-03-17T10:39:36;5.80;;;2.05;;
49123;SDS011;48506;48.202;16.274;2024-03-17T10:42:04;4.25;;;2.03;;
49123;SDS011;48506;48.202;16.274;2024-03-17T10:44:32;2.13;;;1.73;;
49123;SDS011;48506;48.202;16.274;2024-03-17T10:47:01;3.58;;;1.77;;
49123;SDS011;48506;48.202;16.274;2024-03-17T10:49:33;3.67;;;1.80;;
49123;SDS011;48506;48.202;16.274;2024-03-17T10:52:00;4.97;;;2.30;;
49123;SDS011;48506;48.202;16.274;2024-03-17T10:54:34;2.92;;;2.13;;
49123;SDS011;48506;48.202;16.274;2024-03-17T10:57:07;2.42;;;1.70;;
49123;SDS011;48506;48.202;16.274;2024-03-17T10:59:45;2.38;;;1.85;;
49123;SDS011;48506;48.202;16.274;2024-03-17T11:02:22;5.90;;;1.80;;
49123;SDS011;48506;48.202;16.274;2024-03-17T11:04:59;2.90;;;2.10;;
49123;SDS011;48506;48.202;16.274;2024-03-17T11:07:46;4.47;;;2.08;;
49123;SDS011;48506;48.202;16.274;2024-03-17T11:10:18;3.78;;;2.10;;
49123;SDS011;48506;48.202;16.274;2024-03-17T11:17:49;3.97;;;2.08;;
49123;SDS011;48506;48.202;16.274;2024-03-17T11:20:25;7.93;;;2.10;;
49123;SDS011;48506;48.202;16.274;2024-03-17T11:22:59;6.75;;;2.38;;
49123;SDS011;48506;48.202;16.274;2024-03-17T11:27:56;6.00;;;2.07;;
49123;SDS011;48506;48.202;16.274;2024-03-17T11:38:54;3.67;;;2.15;;
49123;SDS011;48506;48.202;16.274;2024-03-17T11:47:04;3.75;;;1.92;;
49123;SDS011;48506;48.202;16.274;2024-03-17T11:49:37;2.97;;;2.03;;
49123;SDS011;48506;48.202;16.274;2024-03-17T11:52:09;2.80;;;1.75;;
49123;SDS011;48506;48.202;16.274;2024-03-17T11:54:44;3.20;;;2.15;;
49123;SDS011;48506;48.202;16.274;2024-03-17T11:57:14;3.97;;;1.83;;
49123;SDS011;48506;48.202;16.274;2024-03-17T11:59:52;2.70;;;1.52;;
49123;SDS011;48506;48.202;16.274;2024-03-17T12:04:48;6.72;;;2.58;;
49123;SDS011;48506;48.202;16.274;2024-03-17T12:07:15;5.07;;;2.20;;
49123;SDS011;48506;48.202;16.274;2024-03-17T12:09:43;3.15;;;1.65;;
49123;SDS011;48506;48.202;16.274;2024-03-17T12:15:02;2.53;;;1.60;;
49123;SDS011;48506;48.202;16.274;2024-03-17T12:20:16;5.80;;;1.92;;
49123;SDS011;48506;48.202;16.274;2024-03-17T12:22:43;4.03;;;1.92;;
49123;SDS011;48506;48.202;16.274;2024-03-17T12:25:16;4.47;;;2.50;;
49123;SDS011;48506;48.202;16.274;2024-03-17T12:27:44;5.75;;;2.10;;
49123;SDS011;48506;48.202;16.274;2024-03-17T12:30:12;3.42;;;2.05;;
49123;SDS011;48506;48.202;16.274;2024-03-17T12:32:38;3.38;;;1.80;;
49123;SDS011;48506;48.202;16.274;2024-03-17T12:35:09;3.55;;;1.70;;
49123;SDS011;48506;48.202;16.274;2024-03-17T12:37:42;2.35;;;1.90;;
49123;SDS011;48506;48.202;16.274;2024-03-17T12:40:18;3.70;;;1.75;;
49123;SDS011;48506;48.202;16.274;2024-03-17T12:42:47;2.17;;;1.60;;
49123;SDS011;48506;48.202;16.274;2024-03-17T12:45:18;2.85;;;1.60;;
49123;SDS011;48506;48.202;16.274;2024-03-17T12:47:46;3.38;;;1.60;;
49123;SDS011;48506;48.202;16.274;2024-03-17T12:50:13;1.95;;;1.50;;
49123;SDS011;48506;48.202;16.274;2024-03-17T12:52:40;2.95;;;2.08;;
49123;SDS011;48506;48.202;16.274;2024-03-17T12:55:18;3.45;;;1.52;;
49123;SDS011;48506;48.202;16.274;2024-03-17T13:00:56;5.68;;;1.80;;
49123;SDS011;48506;48.202;16.274;2024-03-17T13:03:26;3.10;;;1.70;;
49123;SDS011;48506;48.202;16.274;2024-03-17T13:05:58;4.20;;;2.08;;
49123;SDS011;48506;48.202;16.274;2024-03-17T13:08:25;3.35;;;1.70;;
49123;SDS011;48506;48.202;16.274;2024-03-17T13:10:51;3.30;;;1.85;;
49123;SDS011;48506;48.202;16.274;2024-03-17T13:13:17;2.70;;;2.00;;
49123;SDS011;48506;48.202;16.274;2024-03-17T13:15:43;3.10;;;1.80;;
49123;SDS011;48506;48.202;16.274;2024-03-17T13:18:11;3.05;;;1.80;;
49123;SDS011;48506;48.202;16.274;2024-03-17T13:20:43;3.45;;;1.65;;
49123;SDS011;48506;48.202;16.274;2024-03-17T13:23:10;3.92;;;1.88;;
49123;SDS011;48506;48.202;16.274;2024-03-17T13:25:37;2.85;;;1.80;;
49123;SDS011;48506;48.202;16.274;2024-03-17T13:28:04;2.92;;;1.60;;
49123;SDS011;48506;48.202;16.274;2024-03-17T13:30:32;2.55;;;1.65;;
49123;SDS011;48506;48.202;16.274;2024-03-17T13:33:02;3.97;;;2.50;;
49123;SDS011;48506;48.202;16.274;2024-03-17T13:35:37;3.13;;;1.83;;
49123;SDS011;48506;48.202;16.274;2024-03-17T13:38:07;3.65;;;1.70;;
49123;SDS011;48506;48.202;16.274;2024-03-17T13:40:36;3.25;;;2.40;;
49123;SDS011;48506;48.202;16.274;2024-03-17T13:43:04;3.17;;;1.90;;
49123;SDS011;48506;48.202;16.274;2024-03-17T13:45:39;4.57;;;2.05;;
49123;SDS011;48506;48.202;16.274;2024-03-17T13:48:08;4.72;;;1.70;;
49123;SDS011;48506;48.202;16.274;2024-03-17T13:50:36;4.35;;;2.28;;
49123;SDS011;48506;48.202;16.274;2024-03-17T13:53:09;3.42;;;1.73;;
49123;SDS011;48506;48.202;16.274;2024-03-17T13:55:36;3.00;;;1.50;;
49123;SDS011;48506;48.202;16.274;2024-03-17T13:58:03;1.92;;;1.40;;
49123;SDS011;48506;48.202;16.274;2024-03-17T14:00:30;7.38;;;2.13;;
49123;SDS011;48506;48.202;16.274;2024-03-17T14:02:57;5.07;;;3.17;;
49123;SDS011;48506;48.202;16.274;2024-03-17T14:05:24;2.55;;;1.80;;
49123;SDS011;48506;48.202;16.274;2024-03-17T14:07:51;2.75;;;1.95;;
49123;SDS011;48506;48.202;16.274;2024-03-17T14:10:19;2.88;;;1.45;;
49123;SDS011;48506;48.202;16.274;2024-03-17T14:12:46;3.15;;;1.70;;
49123;SDS011;48506;48.202;16.274;2024-03-17T14:15:13;4.00;;;1.33;;
49123;SDS011;48506;48.202;16.274;2024-03-17T14:17:45;3.65;;;1.80;;
49123;SDS011;48506;48.202;16.274;2024-03-17T14:20:14;2.35;;;1.50;;
49123;SDS011;48506;48.202;16.274;2024-03-17T14:22:43;3.80;;;1.40;;
49123;SDS011;48506;48.202;16.274;2024-03-17T14:27:43;3.47;;;1.50;;
49123;SDS011;48506;48.202;16.274;2024-03-17T14:30:11;6.95;;;3.88;;
49123;SDS011;48506;48.202;16.274;2024-03-17T14:32:41;3.08;;;1.70;;
49123;SDS011;48506;48.202;16.274;2024-03-17T14:35:10;1.58;;;1.48;;
49123;SDS011;48506;48.202;16.274;2024-03-17T14:37:40;3.17;;;1.52;;
49123;SDS011;48506;48.202;16.274;2024-03-17T14:40:08;2.00;;;1.60;;
49123;SDS011;48506;48.202;16.274;2024-03-17T14:42:43;3.85;;;1.70;;
49123;SDS011;48506;48.202;16.274;2024-03-17T14:45:10;3.20;;;1.83;;
49123;SDS011;48506;48.202;16.274;2024-03-17T14:47:36;3.30;;;1.67;;
49123;SDS011;48506;48.202;16.274;2024-03-17T14:50:02;4.25;;;1.48;;
49123;SDS011;48506;48.202;16.274;2024-03-17T14:52:28;2.55;;;1.13;;
49123;SDS011;48506;48.202;16.274;2024-03-17T14:54:54;3.05;;;2.00;;
49123;SDS011;48506;48.202;16.274;2024-03-17T14:57:22;4.75;;;1.73;;
49123;SDS011;48506;48.202;16.274;2024-03-17T14:59:48;4.50;;;1.45;;
49123;SDS011;48506;48.202;16.274;2024-03-17T15:02:14;3.08;;;1.63;;
49123;SDS011;48506;48.202;16.274;2024-03-17T15:04:40;2.78;;;1.73;;
49123;SDS011;48506;48.202;16.274;2024-03-17T15:07:07;2.55;;;2.20;;
49123;SDS011;48506;48.202;16.274;2024-03-17T15:09:34;3.03;;;1.40;;
49123;SDS011;48506;48.202;16.274;2024-03-17T15:12:01;2.45;;;1.52;;
49123;SDS011;48506;48.202;16.274;2024-03-17T15:14:28;3.25;;;1.63;;
49123;SDS011;48506;48.202;16.274;2024-03-17T15:16:56;3.47;;;1.77;;
49123;SDS011;48506;48.202;16.274;2024-03-17T15:19:22;2.10;;;1.33;;
49123;SDS011;48506;48.202;16.274;2024-03-17T15:21:48;3.40;;;1.52;;
49123;SDS011;48506;48.202;16.274;2024-03-17T15:24:14;2.25;;;1.25;;
49123;SDS011;48506;48.202;16.274;2024-03-17T15:26:40;2.22;;;1.27;;
49123;SDS011;48506;48.202;16.274;2024-03-17T15:29:06;3.35;;;1.48;;